sensor_id;sensor_type;location;lat;lon;timestamp;temperature;humidity
63899;HTU21D;50070;-32.946;-60.652;2023-01-26T00:01:22;31.57;44.00
63899;HTU21D;50070;-32.946;-60.652;2023-01-26T00:03:50;31.45;44.59
63899;HTU21D;50070;-32.946;-60.652;2023-01-26T00:06:18;31.25;45.41
63899;HTU21D;50070;-32.946;-60.652;2023-01-26T00:08:51;31.35;45.46
63899;HTU21D;50070;-32.946;-60.652;2023-01-26T00:11:24;31.24;45.99
63899;HTU21D;50070;-32.946;-60.652;2023-01-26T00:13:59;30.94;46.86
63899;HTU21D;50070;-32.946;-60.652;2023-01-26T00:16:27;31.33;46.00
63899;HTU21D;50070;-32.946;-60.652;2023-01-26T00:18:53;31.40;45.81
63899;HTU21D;50070;-32.946;-60.652;2023-01-26T00:21:21;31.34;45.93
63899;HTU21D;50070;-32.946;-60.652;2023-01-26T00:23:49;31.38;45.51
63899;HTU21D;50070;-32.946;-60.652;2023-01-26T00:26:19;31.13;45.61
63899;HTU21D;50070;-32.946;-60.652;2023-01-26T00:28:46;31.25;45.73
63899;HTU21D;50070;-32.946;-60.652;2023-01-26T00:31:19;31.41;45.72
63899;HTU21D;50070;-32.946;-60.652;2023-01-26T00:39:03;31.45;46.25
63899;HTU21D;50070;-32.946;-60.652;2023-01-26T00:41:30;31.42;46.45
63899;HTU21D;50070;-32.946;-60.652;2023-01-26T00:44:15;31.08;47.83
63899;HTU21D;50070;-32.946;-60.652;2023-01-26T00:46:42;30.99;48.63
63899;HTU21D;50070;-32.946;-60.652;2023-01-26T00:49:09;30.99;48.66
63899;HTU21D;50070;-32.946;-60.652;2023-01-26T00:51:37;31.24;47.61
63899;HTU21D;50070;-32.946;-60.652;2023-01-26T00:54:04;31.24;48.06
63899;HTU21D;50070;-32.946;-60.652;2023-01-26T00:56:32;31.13;46.16
63899;HTU21D;50070;-32.946;-60.652;2023-01-26T00:59:00;31.04;47.35
63899;HTU21D;50070;-32.946;-60.652;2023-01-26T01:01:29;30.86;47.45
63899;HTU21D;50070;-32.946;-60.652;2023-01-26T01:03:56;30.80;47.77
63899;HTU21D;50070;-32.946;-60.652;2023-01-26T01:06:24;30.81;48.16
63899;HTU21D;50070;-32.946;-60.652;2023-01-26T01:08:51;30.77;48.21
63899;HTU21D;50070;-32.946;-60.652;2023-01-26T01:11:17;30.83;48.45
63899;HTU21D;50070;-32.946;-60.652;2023-01-26T01:13:44;30.76;51.29
63899;HTU21D;50070;-32.946;-60.652;2023-01-26T01:16:13;30.53;50.46
63899;HTU21D;50070;-32.946;-60.652;2023-01-26T01:18:42;30.28;49.84
63899;HTU21D;50070;-32.946;-60.652;2023-01-26T01:21:12;30.15;50.22
63899;HTU21D;50070;-32.946;-60.652;2023-01-26T01:23:39;29.97;50.82
63899;HTU21D;50070;-32.946;-60.652;2023-01-26T01:26:07;30.30;49.51
63899;HTU21D;50070;-32.946;-60.652;2023-01-26T01:28:35;30.30;50.14
63899;HTU21D;50070;-32.946;-60.652;2023-01-26T01:31:06;30.30;50.71
63899;HTU21D;50070;-32.946;-60.652;2023-01-26T01:33:33;30.56;50.07
63899;HTU21D;50070;-32.946;-60.652;2023-01-26T01:36:04;30.63;50.29
63899;HTU21D;50070;-32.946;-60.652;2023-01-26T01:38:31;30.41;53.87
63899;HTU21D;50070;-32.946;-60.652;2023-01-26T01:41:00;30.13;53.96
63899;HTU21D;50070;-32.946;-60.652;2023-01-26T01:43:28;30.38;54.21
63899;HTU21D;50070;-32.946;-60.652;2023-01-26T01:45:55;30.54;52.49
63899;HTU21D;50070;-32.946;-60.652;2023-01-26T01:51:12;30.46;50.77
63899;HTU21D;50070;-32.946;-60.652;2023-01-26T01:53:43;30.55;49.64
63899;HTU21D;50070;-32.946;-60.652;2023-01-26T01:56:20;30.61;49.22
63899;HTU21D;50070;-32.946;-60.652;2023-01-26T01:58:52;30.63;49.64
63899;HTU21D;50070;-32.946;-60.652;2023-01-26T02:01:20;30.70;49.03
63899;HTU21D;50070;-32.946;-60.652;2023-01-26T02:03:50;30.51;50.06
63899;HTU21D;50070;-32.946;-60.652;2023-01-26T02:06:48;30.56;49.92
63899;HTU21D;50070;-32.946;-60.652;2023-01-26T02:09:16;30.53;49.34
63899;HTU21D;50070;-32.946;-60.652;2023-01-26T02:12:06;30.51;49.11
63899;HTU21D;50070;-32.946;-60.652;2023-01-26T02:14:35;30.74;46.26
63899;HTU21D;50070;-32.946;-60.652;2023-01-26T02:17:02;30.75;45.54
63899;HTU21D;50070;-32.946;-60.652;2023-01-26T02:25:39;30.02;52.28
63899;HTU21D;50070;-32.946;-60.652;2023-01-26T02:28:10;29.80;53.30
63899;HTU21D;50070;-32.946;-60.652;2023-01-26T02:30:38;30.05;52.98
63899;HTU21D;50070;-32.946;-60.652;2023-01-26T02:33:05;29.94;52.48
63899;HTU21D;50070;-32.946;-60.652;2023-01-26T02:35:34;29.97;51.33
63899;HTU21D;50070;-32.946;-60.652;2023-01-26T02:38:00;30.20;50.98
63899;HTU21D;50070;-32.946;-60.652;2023-01-26T02:43:02;30.18;49.56
63899;HTU21D;50070;-32.946;-60.652;2023-01-26T02:45:31;30.23;48.88
63899;HTU21D;50070;-32.946;-60.652;2023-01-26T02:47:59;29.96;50.48
63899;HTU21D;50070;-32.946;-60.652;2023-01-26T02:50:30;29.83;50.61
63899;HTU21D;50070;-32.946;-60.652;2023-01-26T02:53:03;29.65;50.88
63899;HTU21D;50070;-32.946;-60.652;2023-01-26T02:55:30;29.71;51.46
63899;HTU21D;50070;-32.946;-60.652;2023-01-26T02:58:01;29.57;51.66
63899;HTU21D;50070;-32.946;-60.652;2023-01-26T03:00:31;29.80;50.98
63899;HTU21D;50070;-32.946;-60.652;2023-01-26T03:03:01;29.83;51.12
63899;HTU21D;50070;-32.946;-60.652;2023-01-26T03:05:29;29.62;51.79
63899;HTU21D;50070;-32.946;-60.652;2023-01-26T03:07:56;29.44;52.42
63899;HTU21D;50070;-32.946;-60.652;2023-01-26T03:10:22;29.38;52.30
63899;HTU21D;50070;-32.946;-60.652;2023-01-26T03:12:52;29.37;52.24
63899;HTU21D;50070;-32.946;-60.652;2023-01-26T03:15:18;29.15;53.97
63899;HTU21D;50070;-32.946;-60.652;2023-01-26T03:18:13;29.08;54.42
63899;HTU21D;50070;-32.946;-60.652;2023-01-26T03:21:18;28.87;55.40
63899;HTU21D;50070;-32.946;-60.652;2023-01-26T03:24:04;29.19;54.48
63899;HTU21D;50070;-32.946;-60.652;2023-01-26T03:26:50;29.01;55.10
63899;HTU21D;50070;-32.946;-60.652;2023-01-26T03:29:36;28.70;56.23
63899;HTU21D;50070;-32.946;-60.652;2023-01-26T03:32:04;28.64;57.28
63899;HTU21D;50070;-32.946;-60.652;2023-01-26T03:34:31;28.87;56.40
63899;HTU21D;50070;-32.946;-60.652;2023-01-26T03:39:23;28.92;56.23
63899;HTU21D;50070;-32.946;-60.652;2023-01-26T03:42:08;28.72;57.17
63899;HTU21D;50070;-32.946;-60.652;2023-01-26T03:44:53;28.95;56.58
63899;HTU21D;50070;-32.946;-60.652;2023-01-26T03:47:38;28.82;56.56
63899;HTU21D;50070;-32.946;-60.652;2023-01-26T03:50:23;28.90;56.68
63899;HTU21D;50070;-32.946;-60.652;2023-01-26T03:53:16;28.92;56.45
63899;HTU21D;50070;-32.946;-60.652;2023-01-26T03:56:01;28.85;57.37
63899;HTU21D;50070;-32.946;-60.652;2023-01-26T03:58:48;29.01;55.79
63899;HTU21D;50070;-32.946;-60.652;2023-01-26T04:01:15;29.00;55.84
63899;HTU21D;50070;-32.946;-60.652;2023-01-26T04:03:48;28.94;55.51
63899;HTU21D;50070;-32.946;-60.652;2023-01-26T04:06:34;28.93;55.34
63899;HTU21D;50070;-32.946;-60.652;2023-01-26T04:09:20;28.89;55.50
63899;HTU21D;50070;-32.946;-60.652;2023-01-26T04:11:47;29.00;55.53
63899;HTU21D;50070;-32.946;-60.652;2023-01-26T04:14:14;28.97;55.59
63899;HTU21D;50070;-32.946;-60.652;2023-01-26T04:17:00;28.87;56.24
63899;HTU21D;50070;-32.946;-60.652;2023-01-26T04:19:46;28.85;56.23
63899;HTU21D;50070;-32.946;-60.652;2023-01-26T04:22:34;28.92;55.69
63899;HTU21D;50070;-32.946;-60.652;2023-01-26T04:25:11;28.73;55.66
63899;HTU21D;50070;-32.946;-60.652;2023-01-26T04:27:39;28.77;55.39
63899;HTU21D;50070;-32.946;-60.652;2023-01-26T04:30:08;28.72;56.04
63899;HTU21D;50070;-32.946;-60.652;2023-01-26T04:32:35;28.70;55.97
63899;HTU21D;50070;-32.946;-60.652;2023-01-26T04:35:02;28.76;55.81
63899;HTU21D;50070;-32.946;-60.652;2023-01-26T04:37:29;28.91;55.49
63899;HTU21D;50070;-32.946;-60.652;2023-01-26T04:39:56;28.74;56.03
63899;HTU21D;50070;-32.946;-60.652;2023-01-26T04:42:23;28.60;56.89
63899;HTU21D;50070;-32.946;-60.652;2023-01-26T04:44:53;28.42;57.32
63899;HTU21D;50070;-32.946;-60.652;2023-01-26T04:47:20;28.29;58.83
63899;HTU21D;50070;-32.946;-60.652;2023-01-26T04:49:47;28.32;58.80
63899;HTU21D;50070;-32.946;-60.652;2023-01-26T04:52:17;28.11;59.83
63899;HTU21D;50070;-32.946;-60.652;2023-01-26T04:54:43;28.33;58.99
63899;HTU21D;50070;-32.946;-60.652;2023-01-26T04:57:10;28.21;59.48
63899;HTU21D;50070;-32.946;-60.652;2023-01-26T04:59:37;28.35;58.35
63899;HTU21D;50070;-32.946;-60.652;2023-01-26T05:02:04;28.57;57.58
63899;HTU21D;50070;-32.946;-60.652;2023-01-26T05:04:31;28.45;57.29
63899;HTU21D;50070;-32.946;-60.652;2023-01-26T05:06:58;28.63;55.67
63899;HTU21D;50070;-32.946;-60.652;2023-01-26T05:09:24;28.50;56.75
63899;HTU21D;50070;-32.946;-60.652;2023-01-26T05:11:51;28.56;56.31
63899;HTU21D;50070;-32.946;-60.652;2023-01-26T05:14:18;28.60;55.62
63899;HTU21D;50070;-32.946;-60.652;2023-01-26T05:16:45;28.60;55.65
63899;HTU21D;50070;-32.946;-60.652;2023-01-26T05:19:11;28.73;55.71
63899;HTU21D;50070;-32.946;-60.652;2023-01-26T05:21:38;29.00;55.06
63899;HTU21D;50070;-32.946;-60.652;2023-01-26T05:24:05;29.15;53.87
63899;HTU21D;50070;-32.946;-60.652;2023-01-26T05:26:33;29.02;54.39
63899;HTU21D;50070;-32.946;-60.652;2023-01-26T05:29:00;28.78;54.74
63899;HTU21D;50070;-32.946;-60.652;2023-01-26T05:31:27;28.78;55.39
63899;HTU21D;50070;-32.946;-60.652;2023-01-26T05:33:54;28.70;55.74
63899;HTU21D;50070;-32.946;-60.652;2023-01-26T05:36:20;28.88;55.16
63899;HTU21D;50070;-32.946;-60.652;2023-01-26T05:38:47;28.64;56.44
63899;HTU21D;50070;-32.946;-60.652;2023-01-26T05:41:14;28.68;55.99
63899;HTU21D;50070;-32.946;-60.652;2023-01-26T05:43:41;28.41;56.69
63899;HTU21D;50070;-32.946;-60.652;2023-01-26T05:46:07;28.49;56.47
63899;HTU21D;50070;-32.946;-60.652;2023-01-26T05:48:34;28.30;57.56
63899;HTU21D;50070;-32.946;-60.652;2023-01-26T05:51:01;28.28;57.39
63899;HTU21D;50070;-32.946;-60.652;2023-01-26T05:53:28;28.53;56.10
63899;HTU21D;50070;-32.946;-60.652;2023-01-26T05:55:55;28.52;56.28
63899;HTU21D;50070;-32.946;-60.652;2023-01-26T05:58:21;28.82;55.30
63899;HTU21D;50070;-32.946;-60.652;2023-01-26T06:00:48;28.46;56.49
63899;HTU21D;50070;-32.946;-60.652;2023-01-26T06:03:15;28.83;55.25
63899;HTU21D;50070;-32.946;-60.652;2023-01-26T06:05:42;28.55;56.61
63899;HTU21D;50070;-32.946;-60.652;2023-01-26T06:08:08;28.30;57.14
63899;HTU21D;50070;-32.946;-60.652;2023-01-26T06:10:35;28.23;57.80
63899;HTU21D;50070;-32.946;-60.652;2023-01-26T06:13:03;28.46;57.69
63899;HTU21D;50070;-32.946;-60.652;2023-01-26T06:15:29;28.29;57.74
63899;HTU21D;50070;-32.946;-60.652;2023-01-26T06:17:56;28.16;57.36
63899;HTU21D;50070;-32.946;-60.652;2023-01-26T06:20:25;28.03;58.02
63899;HTU21D;50070;-32.946;-60.652;2023-01-26T06:22:52;27.99;57.19
63899;HTU21D;50070;-32.946;-60.652;2023-01-26T06:25:19;28.01;55.31
63899;HTU21D;50070;-32.946;-60.652;2023-01-26T06:27:46;27.91;55.34
63899;HTU21D;50070;-32.946;-60.652;2023-01-26T06:30:13;27.91;54.52
63899;HTU21D;50070;-32.946;-60.652;2023-01-26T06:32:40;27.82;54.59
63899;HTU21D;50070;-32.946;-60.652;2023-01-26T06:35:08;27.81;54.64
63899;HTU21D;50070;-32.946;-60.652;2023-01-26T06:37:34;27.86;54.57
63899;HTU21D;50070;-32.946;-60.652;2023-01-26T06:40:01;27.81;54.64
63899;HTU21D;50070;-32.946;-60.652;2023-01-26T06:42:29;27.84;54.55
63899;HTU21D;50070;-32.946;-60.652;2023-01-26T06:44:56;27.69;54.97
63899;HTU21D;50070;-32.946;-60.652;2023-01-26T06:47:24;27.65;54.98
63899;HTU21D;50070;-32.946;-60.652;2023-01-26T06:49:51;27.63;55.19
63899;HTU21D;50070;-32.946;-60.652;2023-01-26T06:52:21;27.75;54.77
63899;HTU21D;50070;-32.946;-60.652;2023-01-26T06:54:49;27.72;54.72
63899;HTU21D;50070;-32.946;-60.652;2023-01-26T06:57:16;27.66;54.92
63899;HTU21D;50070;-32.946;-60.652;2023-01-26T06:59:43;27.65;55.78
63899;HTU21D;50070;-32.946;-60.652;2023-01-26T07:02:17;27.64;55.36
63899;HTU21D;50070;-32.946;-60.652;2023-01-26T07:04:45;27.71;55.16
63899;HTU21D;50070;-32.946;-60.652;2023-01-26T07:07:12;27.61;55.18
63899;HTU21D;50070;-32.946;-60.652;2023-01-26T07:09:39;27.49;55.70
63899;HTU21D;50070;-32.946;-60.652;2023-01-26T07:12:06;27.54;55.65
63899;HTU21D;50070;-32.946;-60.652;2023-01-26T07:14:33;27.55;55.53
63899;HTU21D;50070;-32.946;-60.652;2023-01-26T07:17:00;27.75;54.87
63899;HTU21D;50070;-32.946;-60.652;2023-01-26T07:19:30;27.90;54.70
63899;HTU21D;50070;-32.946;-60.652;2023-01-26T07:21:59;27.65;55.36
63899;HTU21D;50070;-32.946;-60.652;2023-01-26T07:24:27;27.46;55.76
63899;HTU21D;50070;-32.946;-60.652;2023-01-26T07:26:54;27.67;55.01
63899;HTU21D;50070;-32.946;-60.652;2023-01-26T07:29:21;27.64;55.17
63899;HTU21D;50070;-32.946;-60.652;2023-01-26T07:31:48;27.52;55.33
63899;HTU21D;50070;-32.946;-60.652;2023-01-26T07:34:15;27.36;55.90
63899;HTU21D;50070;-32.946;-60.652;2023-01-26T07:36:41;27.46;55.62
63899;HTU21D;50070;-32.946;-60.652;2023-01-26T07:39:08;27.35;55.80
63899;HTU21D;50070;-32.946;-60.652;2023-01-26T07:41:35;27.27;56.03
63899;HTU21D;50070;-32.946;-60.652;2023-01-26T07:44:03;27.35;55.75
63899;HTU21D;50070;-32.946;-60.652;2023-01-26T07:46:32;27.11;56.48
63899;HTU21D;50070;-32.946;-60.652;2023-01-26T07:49:02;27.37;55.74
63899;HTU21D;50070;-32.946;-60.652;2023-01-26T07:51:29;27.43;55.40
63899;HTU21D;50070;-32.946;-60.652;2023-01-26T07:53:56;27.41;56.03
63899;HTU21D;50070;-32.946;-60.652;2023-01-26T07:56:24;27.46;55.78
63899;HTU21D;50070;-32.946;-60.652;2023-01-26T07:58:52;27.54;55.43
63899;HTU21D;50070;-32.946;-60.652;2023-01-26T08:01:19;27.65;55.30
63899;HTU21D;50070;-32.946;-60.652;2023-01-26T08:03:49;27.86;54.63
63899;HTU21D;50070;-32.946;-60.652;2023-01-26T08:06:16;27.85;54.56
63899;HTU21D;50070;-32.946;-60.652;2023-01-26T08:08:44;27.67;55.24
63899;HTU21D;50070;-32.946;-60.652;2023-01-26T08:11:17;27.80;54.77
63899;HTU21D;50070;-32.946;-60.652;2023-01-26T08:13:45;27.90;54.38
63899;HTU21D;50070;-32.946;-60.652;2023-01-26T08:16:12;28.14;53.60
63899;HTU21D;50070;-32.946;-60.652;2023-01-26T08:18:40;28.04;53.89
63899;HTU21D;50070;-32.946;-60.652;2023-01-26T08:21:09;27.70;55.19
63899;HTU21D;50070;-32.946;-60.652;2023-01-26T08:23:36;27.54;55.53
63899;HTU21D;50070;-32.946;-60.652;2023-01-26T08:26:06;27.43;55.65
63899;HTU21D;50070;-32.946;-60.652;2023-01-26T08:28:34;27.44;55.68
63899;HTU21D;50070;-32.946;-60.652;2023-01-26T08:31:13;27.34;56.00
63899;HTU21D;50070;-32.946;-60.652;2023-01-26T08:33:42;27.28;56.11
63899;HTU21D;50070;-32.946;-60.652;2023-01-26T08:36:12;27.30;56.29
63899;HTU21D;50070;-32.946;-60.652;2023-01-26T08:38:39;27.47;55.71
63899;HTU21D;50070;-32.946;-60.652;2023-01-26T08:41:06;27.71;55.61
63899;HTU21D;50070;-32.946;-60.652;2023-01-26T08:43:34;27.56;56.70
63899;HTU21D;50070;-32.946;-60.652;2023-01-26T08:46:00;27.61;56.94
63899;HTU21D;50070;-32.946;-60.652;2023-01-26T08:48:27;27.53;56.99
63899;HTU21D;50070;-32.946;-60.652;2023-01-26T08:50:58;27.31;57.02
63899;HTU21D;50070;-32.946;-60.652;2023-01-26T08:53:26;27.37;56.37
63899;HTU21D;50070;-32.946;-60.652;2023-01-26T08:55:55;27.60;55.68
63899;HTU21D;50070;-32.946;-60.652;2023-01-26T08:58:21;27.81;55.09
63899;HTU21D;50070;-32.946;-60.652;2023-01-26T09:00:48;27.76;55.14
63899;HTU21D;50070;-32.946;-60.652;2023-01-26T09:03:15;27.50;56.13
63899;HTU21D;50070;-32.946;-60.652;2023-01-26T09:05:42;27.39;56.30
63899;HTU21D;50070;-32.946;-60.652;2023-01-26T09:08:09;27.30;56.60
63899;HTU21D;50070;-32.946;-60.652;2023-01-26T09:10:39;27.20;56.87
63899;HTU21D;50070;-32.946;-60.652;2023-01-26T09:13:06;27.15;56.93
63899;HTU21D;50070;-32.946;-60.652;2023-01-26T09:15:37;27.16;57.18
63899;HTU21D;50070;-32.946;-60.652;2023-01-26T09:18:04;27.24;56.69
63899;HTU21D;50070;-32.946;-60.652;2023-01-26T09:20:31;27.20;56.48
63899;HTU21D;50070;-32.946;-60.652;2023-01-26T09:22:57;27.12;56.48
63899;HTU21D;50070;-32.946;-60.652;2023-01-26T09:25:24;27.30;56.23
63899;HTU21D;50070;-32.946;-60.652;2023-01-26T09:27:51;27.41;56.11
63899;HTU21D;50070;-32.946;-60.652;2023-01-26T09:30:18;27.32;55.97
63899;HTU21D;50070;-32.946;-60.652;2023-01-26T09:32:44;27.37;56.08
63899;HTU21D;50070;-32.946;-60.652;2023-01-26T09:35:11;27.34;55.95
63899;HTU21D;50070;-32.946;-60.652;2023-01-26T09:37:38;27.13;56.71
63899;HTU21D;50070;-32.946;-60.652;2023-01-26T09:40:05;27.40;55.66
63899;HTU21D;50070;-32.946;-60.652;2023-01-26T09:48:53;27.41;57.06
63899;HTU21D;50070;-32.946;-60.652;2023-01-26T09:52:02;27.44;56.42
63899;HTU21D;50070;-32.946;-60.652;2023-01-26T09:54:41;27.49;56.22
63899;HTU21D;50070;-32.946;-60.652;2023-01-26T10:00:22;27.83;55.02
63899;HTU21D;50070;-32.946;-60.652;2023-01-26T10:06:20;27.64;55.22
63899;HTU21D;50070;-32.946;-60.652;2023-01-26T10:08:49;27.80;54.69
63899;HTU21D;50070;-32.946;-60.652;2023-01-26T10:11:30;28.10;54.56
63899;HTU21D;50070;-32.946;-60.652;2023-01-26T10:14:31;27.83;56.87
63899;HTU21D;50070;-32.946;-60.652;2023-01-26T10:17:05;28.02;57.52
63899;HTU21D;50070;-32.946;-60.652;2023-01-26T10:22:26;27.73;58.90
63899;HTU21D;50070;-32.946;-60.652;2023-01-26T10:24:59;27.90;58.51
63899;HTU21D;50070;-32.946;-60.652;2023-01-26T10:27:27;27.75;59.15
63899;HTU21D;50070;-32.946;-60.652;2023-01-26T10:29:54;27.63;59.73
63899;HTU21D;50070;-32.946;-60.652;2023-01-26T10:32:22;27.49;59.55
63899;HTU21D;50070;-32.946;-60.652;2023-01-26T10:34:50;27.68;58.86
63899;HTU21D;50070;-32.946;-60.652;2023-01-26T10:37:25;27.68;58.60
63899;HTU21D;50070;-32.946;-60.652;2023-01-26T10:40:01;27.80;57.59
63899;HTU21D;50070;-32.946;-60.652;2023-01-26T10:42:31;27.55;57.61
63899;HTU21D;50070;-32.946;-60.652;2023-01-26T10:45:00;27.67;57.35
63899;HTU21D;50070;-32.946;-60.652;2023-01-26T10:47:28;27.75;56.66
63899;HTU21D;50070;-32.946;-60.652;2023-01-26T10:50:22;27.70;56.36
63899;HTU21D;50070;-32.946;-60.652;2023-01-26T10:53:00;27.82;55.73
63899;HTU21D;50070;-32.946;-60.652;2023-01-26T10:55:29;27.85;55.56
63899;HTU21D;50070;-32.946;-60.652;2023-01-26T10:57:56;27.96;55.65
63899;HTU21D;50070;-32.946;-60.652;2023-01-26T11:00:32;27.88;56.07
63899;HTU21D;50070;-32.946;-60.652;2023-01-26T11:03:16;27.98;55.37
63899;HTU21D;50070;-32.946;-60.652;2023-01-26T11:05:44;28.16;54.62
63899;HTU21D;50070;-32.946;-60.652;2023-01-26T11:08:36;28.25;54.43
63899;HTU21D;50070;-32.946;-60.652;2023-01-26T11:11:05;28.14;55.11
63899;HTU21D;50070;-32.946;-60.652;2023-01-26T11:13:40;28.31;54.67
63899;HTU21D;50070;-32.946;-60.652;2023-01-26T11:16:18;28.39;54.64
63899;HTU21D;50070;-32.946;-60.652;2023-01-26T11:19:25;28.50;54.42
63899;HTU21D;50070;-32.946;-60.652;2023-01-26T11:21:46;28.78;53.87
63899;HTU21D;50070;-32.946;-60.652;2023-01-26T11:38:36;29.00;52.03
63899;HTU21D;50070;-32.946;-60.652;2023-01-26T11:41:39;29.07;51.47
63899;HTU21D;50070;-32.946;-60.652;2023-01-26T11:44:51;29.59;50.30
63899;HTU21D;50070;-32.946;-60.652;2023-01-26T11:47:47;29.51;48.76
63899;HTU21D;50070;-32.946;-60.652;2023-01-26T11:53:05;30.11;48.76
63899;HTU21D;50070;-32.946;-60.652;2023-01-26T11:58:44;32.04;44.11
63899;HTU21D;50070;-32.946;-60.652;2023-01-26T12:03:55;34.17;39.23
63899;HTU21D;50070;-32.946;-60.652;2023-01-26T12:06:37;32.58;43.50
63899;HTU21D;50070;-32.946;-60.652;2023-01-26T12:09:24;32.40;43.75
63899;HTU21D;50070;-32.946;-60.652;2023-01-26T12:15:12;30.99;47.02
63899;HTU21D;50070;-32.946;-60.652;2023-01-26T12:20:40;32.75;42.59
63899;HTU21D;50070;-32.946;-60.652;2023-01-26T12:25:40;31.85;45.61
63899;HTU21D;50070;-32.946;-60.652;2023-01-26T12:28:40;31.57;47.36
63899;HTU21D;50070;-32.946;-60.652;2023-01-26T12:33:52;31.19;47.84
63899;HTU21D;50070;-32.946;-60.652;2023-01-26T12:36:34;31.22;47.18
63899;HTU21D;50070;-32.946;-60.652;2023-01-26T12:39:46;31.02;47.78
63899;HTU21D;50070;-32.946;-60.652;2023-01-26T12:42:18;31.22;46.74
63899;HTU21D;50070;-32.946;-60.652;2023-01-26T12:44:57;30.89;47.82
63899;HTU21D;50070;-32.946;-60.652;2023-01-26T12:47:40;30.86;47.00
63899;HTU21D;50070;-32.946;-60.652;2023-01-26T12:53:18;30.87;46.64
63899;HTU21D;50070;-32.946;-60.652;2023-01-26T12:55:53;31.26;46.02
63899;HTU21D;50070;-32.946;-60.652;2023-01-26T12:58:32;31.05;46.75
63899;HTU21D;50070;-32.946;-60.652;2023-01-26T13:01:09;30.77;47.34
63899;HTU21D;50070;-32.946;-60.652;2023-01-26T13:03:41;31.14;46.50
63899;HTU21D;50070;-32.946;-60.652;2023-01-26T13:11:04;30.79;48.20
63899;HTU21D;50070;-32.946;-60.652;2023-01-26T13:13:55;31.31;46.24
63899;HTU21D;50070;-32.946;-60.652;2023-01-26T13:18:57;31.65;43.96
63899;HTU21D;50070;-32.946;-60.652;2023-01-26T13:26:51;30.95;46.68
63899;HTU21D;50070;-32.946;-60.652;2023-01-26T13:31:56;31.52;45.97
63899;HTU21D;50070;-32.946;-60.652;2023-01-26T13:34:38;32.25;44.50
63899;HTU21D;50070;-32.946;-60.652;2023-01-26T13:40:26;31.70;46.10
63899;HTU21D;50070;-32.946;-60.652;2023-01-26T13:43:09;31.78;45.73
63899;HTU21D;50070;-32.946;-60.652;2023-01-26T13:49:03;31.73;45.16
63899;HTU21D;50070;-32.946;-60.652;2023-01-26T13:51:06;32.38;43.84
63899;HTU21D;50070;-32.946;-60.652;2023-01-26T13:53:42;31.72;44.77
63899;HTU21D;50070;-32.946;-60.652;2023-01-26T13:56:23;31.76;44.64
63899;HTU21D;50070;-32.946;-60.652;2023-01-26T13:58:50;32.13;44.05
63899;HTU21D;50070;-32.946;-60.652;2023-01-26T14:01:18;32.73;42.39
63899;HTU21D;50070;-32.946;-60.652;2023-01-26T14:03:46;31.71;44.98
63899;HTU21D;50070;-32.946;-60.652;2023-01-26T14:06:19;31.21;46.02
63899;HTU21D;50070;-32.946;-60.652;2023-01-26T14:08:53;31.63;45.13
63899;HTU21D;50070;-32.946;-60.652;2023-01-26T14:11:22;31.61;45.24
63899;HTU21D;50070;-32.946;-60.652;2023-01-26T14:13:55;31.55;44.86
63899;HTU21D;50070;-32.946;-60.652;2023-01-26T14:16:29;31.46;45.03
63899;HTU21D;50070;-32.946;-60.652;2023-01-26T14:19:14;31.50;45.63
63899;HTU21D;50070;-32.946;-60.652;2023-01-26T14:24:36;31.68;45.03
63899;HTU21D;50070;-32.946;-60.652;2023-01-26T14:29:54;32.02;44.35
63899;HTU21D;50070;-32.946;-60.652;2023-01-26T14:32:21;32.00;44.37
63899;HTU21D;50070;-32.946;-60.652;2023-01-26T14:34:56;31.92;45.16
63899;HTU21D;50070;-32.946;-60.652;2023-01-26T14:37:24;32.31;44.54
63899;HTU21D;50070;-32.946;-60.652;2023-01-26T14:40:22;32.48;43.64
63899;HTU21D;50070;-32.946;-60.652;2023-01-26T14:42:51;32.97;42.65
63899;HTU21D;50070;-32.946;-60.652;2023-01-26T14:45:25;32.89;41.40
63899;HTU21D;50070;-32.946;-60.652;2023-01-26T14:48:07;32.76;42.00
63899;HTU21D;50070;-32.946;-60.652;2023-01-26T14:50:35;32.85;42.10
63899;HTU21D;50070;-32.946;-60.652;2023-01-26T14:53:03;33.33;41.13
63899;HTU21D;50070;-32.946;-60.652;2023-01-26T14:55:35;33.20;41.36
63899;HTU21D;50070;-32.946;-60.652;2023-01-26T14:58:11;32.78;42.02
63899;HTU21D;50070;-32.946;-60.652;2023-01-26T15:00:38;33.02;41.90
63899;HTU21D;50070;-32.946;-60.652;2023-01-26T15:03:18;33.41;39.83
63899;HTU21D;50070;-32.946;-60.652;2023-01-26T15:05:47;33.21;40.16
63899;HTU21D;50070;-32.946;-60.652;2023-01-26T15:08:20;32.84;40.39
63899;HTU21D;50070;-32.946;-60.652;2023-01-26T15:11:01;33.70;39.30
63899;HTU21D;50070;-32.946;-60.652;2023-01-26T15:13:51;33.19;40.32
63899;HTU21D;50070;-32.946;-60.652;2023-01-26T15:16:20;33.22;41.00
63899;HTU21D;50070;-32.946;-60.652;2023-01-26T15:19:05;33.46;40.17
63899;HTU21D;50070;-32.946;-60.652;2023-01-26T15:21:37;33.43;40.05
63899;HTU21D;50070;-32.946;-60.652;2023-01-26T15:24:13;32.74;42.06
63899;HTU21D;50070;-32.946;-60.652;2023-01-26T15:26:41;32.91;41.31
63899;HTU21D;50070;-32.946;-60.652;2023-01-26T15:31:54;33.55;39.49
63899;HTU21D;50070;-32.946;-60.652;2023-01-26T15:34:36;33.82;39.17
63899;HTU21D;50070;-32.946;-60.652;2023-01-26T15:37:32;33.41;40.19
63899;HTU21D;50070;-32.946;-60.652;2023-01-26T15:40:01;33.17;39.68
63899;HTU21D;50070;-32.946;-60.652;2023-01-26T15:42:29;33.82;38.44
63899;HTU21D;50070;-32.946;-60.652;2023-01-26T15:44:56;34.11;37.66
63899;HTU21D;50070;-32.946;-60.652;2023-01-26T15:47:23;34.07;36.43
63899;HTU21D;50070;-32.946;-60.652;2023-01-26T15:49:50;33.05;38.57
63899;HTU21D;50070;-32.946;-60.652;2023-01-26T15:52:23;33.40;38.52
63899;HTU21D;50070;-32.946;-60.652;2023-01-26T15:54:51;33.68;38.57
63899;HTU21D;50070;-32.946;-60.652;2023-01-26T15:57:19;33.74;38.36
63899;HTU21D;50070;-32.946;-60.652;2023-01-26T15:59:45;33.37;39.28
63899;HTU21D;50070;-32.946;-60.652;2023-01-26T16:02:14;33.33;39.71
63899;HTU21D;50070;-32.946;-60.652;2023-01-26T16:04:42;33.18;40.03
63899;HTU21D;50070;-32.946;-60.652;2023-01-26T16:07:16;33.53;39.33
63899;HTU21D;50070;-32.946;-60.652;2023-01-26T16:09:43;33.76;38.31
63899;HTU21D;50070;-32.946;-60.652;2023-01-26T16:12:15;33.64;38.75
63899;HTU21D;50070;-32.946;-60.652;2023-01-26T16:14:43;33.53;38.59
63899;HTU21D;50070;-32.946;-60.652;2023-01-26T16:17:14;33.86;38.48
63899;HTU21D;50070;-32.946;-60.652;2023-01-26T16:19:42;34.10;37.39
63899;HTU21D;50070;-32.946;-60.652;2023-01-26T16:22:11;33.86;37.50
63899;HTU21D;50070;-32.946;-60.652;2023-01-26T16:24:39;34.11;37.13
63899;HTU21D;50070;-32.946;-60.652;2023-01-26T16:27:08;34.10;36.89
63899;HTU21D;50070;-32.946;-60.652;2023-01-26T16:29:35;34.44;36.07
63899;HTU21D;50070;-32.946;-60.652;2023-01-26T16:32:28;34.96;35.17
63899;HTU21D;50070;-32.946;-60.652;2023-01-26T16:34:55;34.34;36.17
63899;HTU21D;50070;-32.946;-60.652;2023-01-26T16:37:22;35.12;35.22
63899;HTU21D;50070;-32.946;-60.652;2023-01-26T16:39:52;34.86;35.48
63899;HTU21D;50070;-32.946;-60.652;2023-01-26T16:42:19;34.54;36.18
63899;HTU21D;50070;-32.946;-60.652;2023-01-26T16:44:47;34.23;35.83